createdAt,value
2019-02-24T00:01:57.274Z,4.70
2019-02-24T00:04:26.122Z,4.58
2019-02-24T00:06:53.177Z,4.86
2019-02-24T00:09:20.241Z,4.67
2019-02-24T00:11:47.394Z,4.68
2019-02-24T00:14:15.577Z,4.64
2019-02-24T00:16:42.664Z,4.66
2019-02-24T00:19:09.718Z,4.89
2019-02-24T00:21:36.805Z,4.59
2019-02-24T00:24:03.846Z,4.28
2019-02-24T00:26:32.003Z,4.25
2019-02-24T00:28:59.178Z,4.78
2019-02-24T00:31:27.442Z,4.54
2019-02-24T00:33:54.491Z,4.38
2019-02-24T00:36:21.666Z,4.69
2019-02-24T00:38:48.706Z,4.59
2019-02-24T00:41:15.954Z,4.66
2019-02-24T00:43:43.331Z,4.75
2019-02-24T00:46:10.406Z,4.72
2019-02-24T00:48:37.778Z,4.72
2019-02-24T00:51:04.850Z,4.77
2019-02-24T00:53:31.918Z,4.90
2019-02-24T00:55:59.032Z,4.92
2019-02-24T00:58:26.093Z,4.96
2019-02-24T01:00:54.269Z,4.72
2019-02-24T01:03:22.752Z,4.57
2019-02-24T01:05:49.809Z,4.72
2019-02-24T01:08:17.174Z,4.56
2019-02-24T01:10:44.303Z,4.82
2019-02-24T01:13:11.400Z,4.77
2019-02-24T01:15:38.454Z,4.69
2019-02-24T01:18:05.504Z,4.27
2019-02-24T01:20:34.414Z,4.32
2019-02-24T01:23:01.586Z,4.18
2019-02-24T01:25:29.849Z,4.25
2019-02-24T01:27:56.922Z,4.17
2019-02-24T01:30:25.041Z,4.14
2019-02-24T01:32:52.089Z,3.97
2019-02-24T01:35:19.543Z,3.90
2019-02-24T01:37:47.530Z,4.11
2019-02-24T01:40:15.189Z,4.24
2019-02-24T01:42:42.854Z,4.25
2019-02-24T01:45:09.910Z,4.42
2019-02-24T01:47:36.955Z,4.63
2019-02-24T01:50:05.478Z,4.18
2019-02-24T01:52:32.588Z,4.68
2019-02-24T01:55:01.447Z,4.43
2019-02-24T01:57:29.528Z,4.51
2019-02-24T01:59:56.590Z,4.69
2019-02-24T02:02:23.662Z,4.36
2019-02-24T02:04:50.714Z,4.31
2019-02-24T02:07:19.645Z,4.08
2019-02-24T02:09:46.722Z,4.04
2019-02-24T02:12:13.779Z,4.14
2019-02-24T02:14:41.206Z,4.16
2019-02-24T02:17:10.355Z,4.53
2019-02-24T02:19:37.409Z,4.29
2019-02-24T02:22:04.825Z,4.11
2019-02-24T02:24:32.177Z,4.09
2019-02-24T02:26:59.225Z,4.04
2019-02-24T02:29:26.305Z,4.11
2019-02-24T02:31:53.352Z,4.18
2019-02-24T02:34:20.397Z,4.26
2019-02-24T02:36:48.598Z,4.31
2019-02-24T02:39:15.679Z,4.46
2019-02-24T02:41:42.793Z,4.10
2019-02-24T02:44:09.879Z,4.25
2019-02-24T02:46:36.930Z,4.28
2019-02-24T02:49:05.351Z,4.07
2019-02-24T02:51:33.468Z,4.18
2019-02-24T02:54:00.564Z,4.02
2019-02-24T02:56:29.733Z,4.56
2019-02-24T02:58:57.497Z,4.73
2019-02-24T03:01:24.845Z,4.19
2019-02-24T03:03:52.921Z,4.40
2019-02-24T03:06:32.873Z,4.41
2019-02-24T03:09:00.262Z,4.16
2019-02-24T03:11:27.530Z,4.41
2019-02-24T03:13:54.834Z,4.05
2019-02-24T03:16:27.094Z,4.00
2019-02-24T03:18:54.457Z,3.89
2019-02-24T03:21:21.860Z,3.79
2019-02-24T03:23:49.843Z,4.07
2019-02-24T03:26:17.243Z,3.84
2019-02-24T03:28:44.299Z,3.74
2019-02-24T03:31:11.729Z,4.08
2019-02-24T03:33:39.797Z,4.16
2019-02-24T03:36:06.854Z,4.29
2019-02-24T03:38:34.271Z,4.09
2019-02-24T03:41:02.901Z,4.05
2019-02-24T03:43:32.415Z,4.23
2019-02-24T03:45:59.476Z,4.29
2019-02-24T03:48:29.168Z,4.16
2019-02-24T03:50:56.826Z,3.92
2019-02-24T03:53:24.110Z,3.86
2019-02-24T03:55:51.568Z,3.53
2019-02-24T03:58:18.746Z,3.65
2019-02-24T04:00:47.954Z,3.78
2019-02-24T04:03:15.337Z,3.82
2019-02-24T04:05:43.035Z,4.03
2019-02-24T04:08:10.559Z,3.72
2019-02-24T04:10:37.942Z,4.01
2019-02-24T04:13:06.813Z,4.14
2019-02-24T04:15:34.993Z,3.91
2019-02-24T04:18:03.046Z,3.49
2019-02-24T04:20:30.816Z,3.20
2019-02-24T04:22:58.777Z,3.31
2019-02-24T04:25:27.290Z,3.44
2019-02-24T04:27:56.871Z,3.54
2019-02-24T04:30:24.254Z,3.65
2019-02-24T04:32:53.422Z,3.58
2019-02-24T04:35:21.030Z,3.84
2019-02-24T04:37:48.087Z,3.91
2019-02-24T04:40:15.174Z,3.82
2019-02-24T04:42:42.254Z,3.86
2019-02-24T04:45:09.686Z,4.00
2019-02-24T04:47:36.757Z,3.58
2019-02-24T04:50:04.424Z,4.02
2019-02-24T04:52:34.714Z,3.92
2019-02-24T04:55:02.099Z,3.76
2019-02-24T04:57:29.933Z,3.67
2019-02-24T04:59:58.163Z,3.61
2019-02-24T05:02:25.794Z,3.56
2019-02-24T05:04:54.194Z,3.58
2019-02-24T05:07:22.339Z,3.62
2019-02-24T05:09:49.704Z,3.52
2019-02-24T05:12:17.385Z,3.34
2019-02-24T05:14:47.307Z,3.17
2019-02-24T05:17:14.939Z,3.68
2019-02-24T05:19:42.679Z,3.50
2019-02-24T05:22:10.079Z,3.84
2019-02-24T05:24:37.144Z,3.74
2019-02-24T05:27:04.593Z,3.76
2019-02-24T05:29:31.669Z,3.75
2019-02-24T05:31:58.746Z,3.82
2019-02-24T05:34:26.041Z,3.62
2019-02-24T05:36:53.419Z,3.64
2019-02-24T05:39:20.830Z,3.59
2019-02-24T05:41:48.105Z,3.69
2019-02-24T05:44:15.175Z,3.76
2019-02-24T05:46:42.572Z,3.66
2019-02-24T05:49:09.788Z,3.53
2019-02-24T05:51:37.591Z,3.82
2019-02-24T05:54:04.677Z,4.05
2019-02-24T05:56:31.772Z,3.78
2019-02-24T05:58:59.294Z,3.48
2019-02-24T06:01:26.475Z,3.68
2019-02-24T06:03:53.643Z,3.42
2019-02-24T06:06:21.206Z,3.52
2019-02-24T06:08:51.816Z,3.32
2019-02-24T06:11:20.643Z,3.31
2019-02-24T06:13:48.065Z,3.34
2019-02-24T06:16:15.825Z,3.13
2019-02-24T06:18:42.887Z,3.11
2019-02-24T06:21:10.345Z,3.24
2019-02-24T06:23:38.397Z,3.17
2019-02-24T06:26:06.118Z,3.32
2019-02-24T06:28:33.939Z,3.72
2019-02-24T06:31:02.359Z,4.09
2019-02-24T06:33:31.761Z,4.05
2019-02-24T06:36:00.624Z,4.13
2019-02-24T06:38:28.566Z,3.84
2019-02-24T06:40:57.461Z,4.33
2019-02-24T06:43:24.847Z,4.09
2019-02-24T06:45:52.574Z,4.22
2019-02-24T06:48:19.666Z,4.21
2019-02-24T06:50:54.819Z,4.05
2019-02-24T06:53:23.695Z,4.01
2019-02-24T06:55:52.948Z,3.62
2019-02-24T06:58:20.919Z,4.05
2019-02-24T07:00:48.578Z,3.79
2019-02-24T07:03:15.969Z,3.61
2019-02-24T07:05:43.037Z,3.78
2019-02-24T07:08:11.166Z,3.92
2019-02-24T07:10:40.659Z,3.59
2019-02-24T07:13:08.422Z,3.77
2019-02-24T07:15:37.267Z,4.13
2019-02-24T07:18:05.794Z,4.54
2019-02-24T07:20:34.141Z,4.50
2019-02-24T07:23:01.626Z,4.74
2019-02-24T07:25:28.690Z,4.91
2019-02-24T07:27:56.438Z,4.86
2019-02-24T07:30:23.991Z,4.85
2019-02-24T07:32:52.800Z,4.42
2019-02-24T07:35:20.586Z,4.93
2019-02-24T07:37:48.039Z,5.06
2019-02-24T07:40:15.385Z,5.03
2019-02-24T07:42:43.023Z,4.99
2019-02-24T07:45:10.389Z,5.21
2019-02-24T07:47:37.569Z,5.72
2019-02-24T07:50:05.213Z,5.83
2019-02-24T07:52:33.611Z,5.60
2019-02-24T07:55:00.678Z,5.38
2019-02-24T07:57:27.930Z,5.41
2019-02-24T07:59:56.023Z,5.55
2019-02-24T08:02:23.110Z,5.85
2019-02-24T08:04:51.302Z,5.96
2019-02-24T08:07:19.781Z,5.81
2019-02-24T08:09:46.954Z,5.57
2019-02-24T08:12:15.161Z,5.01
2019-02-24T08:14:42.224Z,5.91
2019-02-24T08:17:09.313Z,6.17
2019-02-24T08:19:36.666Z,6.41
2019-02-24T08:22:03.751Z,6.35
2019-02-24T08:24:32.971Z,6.02
2019-02-24T08:27:00.367Z,6.56
2019-02-24T08:29:29.489Z,6.50
2019-02-24T08:31:56.722Z,6.61
2019-02-24T08:34:23.867Z,6.73
2019-02-24T08:36:51.274Z,6.99
2019-02-24T08:39:18.785Z,6.93
2019-02-24T08:41:46.028Z,7.02
2019-02-24T08:44:13.438Z,7.41
2019-02-24T08:46:42.338Z,7.16
2019-02-24T08:49:11.544Z,7.41
2019-02-24T08:51:40.736Z,7.46
2019-02-24T08:54:09.236Z,7.87
2019-02-24T08:56:37.279Z,8.02
2019-02-24T08:59:04.732Z,8.01
2019-02-24T09:01:32.135Z,8.13
2019-02-24T09:03:59.956Z,8.16
2019-02-24T09:06:27.002Z,8.41
2019-02-24T09:08:54.662Z,7.93
2019-02-24T09:11:22.120Z,8.44
2019-02-24T09:13:49.476Z,8.69
2019-02-24T09:16:16.829Z,8.62
2019-02-24T09:18:44.045Z,8.79
2019-02-24T09:21:12.197Z,8.55
2019-02-24T09:23:39.281Z,8.88
2019-02-24T09:26:06.503Z,9.26
2019-02-24T09:28:33.555Z,9.62
2019-02-24T09:31:01.220Z,8.95
2019-02-24T09:33:28.307Z,9.09
2019-02-24T09:35:55.356Z,9.20
2019-02-24T09:38:22.424Z,9.31
2019-02-24T09:40:50.206Z,9.54
2019-02-24T09:43:17.288Z,9.79
2019-02-24T09:45:45.483Z,9.54
2019-02-24T09:48:12.873Z,9.89
2019-02-24T09:50:40.249Z,9.95
2019-02-24T09:53:07.502Z,10.08
2019-02-24T09:55:35.241Z,10.21
2019-02-24T09:58:03.919Z,10.37
2019-02-24T10:00:32.228Z,10.30
2019-02-24T10:03:00.602Z,10.22
2019-02-24T10:05:28.029Z,10.42
2019-02-24T10:07:57.231Z,10.83
2019-02-24T10:10:24.323Z,11.01
2019-02-24T10:12:52.541Z,11.05
2019-02-24T10:15:19.699Z,10.85
2019-02-24T10:17:46.769Z,10.85
2019-02-24T10:20:13.937Z,10.52
2019-02-24T10:22:41.296Z,11.01
2019-02-24T10:25:08.379Z,11.40
2019-02-24T10:27:35.446Z,11.61
2019-02-24T10:30:02.570Z,11.63
2019-02-24T10:32:31.559Z,10.91
2019-02-24T10:34:58.638Z,11.14
2019-02-24T10:37:25.918Z,11.38
2019-02-24T10:39:53.332Z,11.38
2019-02-24T10:42:20.714Z,11.77
2019-02-24T10:44:48.250Z,11.45
2019-02-24T10:47:15.638Z,11.45
2019-02-24T10:49:42.710Z,12.02
2019-02-24T10:52:09.987Z,12.02
2019-02-24T10:54:37.054Z,11.50
2019-02-24T10:57:05.222Z,11.71
2019-02-24T10:59:34.450Z,11.43
2019-02-24T11:02:01.533Z,11.66
2019-02-24T11:04:28.981Z,11.66
2019-02-24T11:06:56.217Z,11.80
2019-02-24T11:09:23.279Z,12.16
2019-02-24T11:11:50.420Z,12.15
2019-02-24T11:14:18.682Z,12.54
2019-02-24T11:16:45.771Z,12.72
2019-02-24T11:19:14.492Z,12.93
2019-02-24T11:21:41.569Z,12.47
2019-02-24T11:24:09.586Z,12.22
2019-02-24T11:26:36.655Z,12.89
2019-02-24T11:29:05.534Z,12.86
2019-02-24T11:31:38.330Z,12.60
2019-02-24T11:34:01.663Z,13.05
2019-02-24T11:36:28.771Z,13.23
2019-02-24T11:38:56.201Z,13.35
2019-02-24T11:41:23.270Z,13.10
2019-02-24T11:43:50.352Z,13.37
2019-02-24T11:46:17.421Z,13.29
2019-02-24T11:48:45.018Z,13.48
2019-02-24T11:51:12.134Z,13.30
2019-02-24T11:53:39.207Z,13.53
2019-02-24T11:56:06.276Z,13.16
2019-02-24T11:58:33.358Z,13.26
2019-02-24T12:01:00.435Z,13.37
2019-02-24T12:03:27.850Z,13.37
2019-02-24T12:05:55.955Z,13.53
2019-02-24T12:08:23.038Z,13.32
2019-02-24T12:10:50.092Z,13.82
2019-02-24T12:13:17.179Z,13.94
2019-02-24T12:15:44.607Z,14.05
2019-02-24T12:18:12.731Z,14.08
2019-02-24T12:20:41.934Z,14.07
2019-02-24T12:23:09.698Z,13.95
2019-02-24T12:25:36.852Z,13.82
2019-02-24T12:28:04.190Z,14.17
2019-02-24T12:30:31.882Z,13.91
2019-02-24T12:33:00.543Z,14.31
2019-02-24T12:35:27.998Z,14.23
2019-02-24T12:37:55.055Z,14.10
2019-02-24T12:40:23.830Z,13.79
2019-02-24T12:42:51.797Z,14.21
2019-02-24T12:45:19.331Z,14.12
2019-02-24T12:47:47.125Z,14.06
2019-02-24T12:50:14.606Z,13.95
2019-02-24T12:52:42.049Z,14.02
2019-02-24T12:55:10.331Z,13.81
2019-02-24T12:57:37.412Z,14.01
2019-02-24T13:00:08.047Z,14.12
2019-02-24T13:02:35.115Z,14.09
2019-02-24T13:05:02.201Z,14.22
2019-02-24T13:07:31.195Z,14.23
2019-02-24T13:09:59.483Z,13.99
2019-02-24T13:12:26.534Z,14.58
2019-02-24T13:14:53.822Z,14.76
2019-02-24T13:17:20.900Z,14.65
2019-02-24T13:19:48.966Z,14.51
2019-02-24T13:22:18.016Z,14.08
2019-02-24T13:24:45.584Z,14.58
2019-02-24T13:27:14.823Z,14.61
2019-02-24T13:29:41.901Z,15.49
2019-02-24T13:32:14.889Z,17.28
2019-02-24T13:34:38.245Z,18.10
2019-02-24T13:37:07.452Z,17.46
2019-02-24T13:39:34.501Z,16.71
2019-02-24T13:42:01.689Z,18.05
2019-02-24T13:44:28.844Z,18.75
2019-02-24T13:46:55.910Z,19.81
2019-02-24T13:49:22.997Z,19.33
2019-02-24T13:51:50.393Z,18.26
2019-02-24T13:54:17.475Z,17.87
2019-02-24T13:56:45.464Z,17.98
2019-02-24T13:59:12.762Z,17.94
2019-02-24T14:01:40.824Z,16.37
2019-02-24T14:04:07.953Z,16.35
2019-02-24T14:06:35.001Z,16.09
2019-02-24T14:09:02.949Z,15.67
2019-02-24T14:11:32.268Z,15.73
2019-02-24T14:13:59.343Z,15.50
2019-02-24T14:16:26.569Z,15.88
2019-02-24T14:18:54.110Z,15.80
2019-02-24T14:21:21.469Z,15.94
2019-02-24T14:23:48.545Z,16.37
2019-02-24T14:26:15.588Z,16.68
2019-02-24T14:28:42.697Z,16.58
2019-02-24T14:31:11.207Z,16.65
2019-02-24T14:33:38.288Z,16.57
2019-02-24T14:36:06.403Z,17.07
2019-02-24T14:38:33.479Z,16.74
2019-02-24T14:41:03.792Z,16.37
2019-02-24T14:43:31.963Z,16.09
2019-02-24T14:45:59.068Z,16.95
2019-02-24T14:48:26.500Z,17.28
2019-02-24T14:50:54.956Z,17.25
2019-02-24T14:53:23.831Z,17.77
2019-02-24T14:55:53.447Z,17.75
2019-02-24T14:58:22.310Z,17.59
2019-02-24T15:00:50.020Z,17.13
2019-02-24T15:03:17.531Z,16.31
2019-02-24T15:05:44.601Z,16.00
2019-02-24T15:08:11.931Z,15.42
2019-02-24T15:10:39.011Z,15.51
2019-02-24T15:13:06.362Z,16.17
2019-02-24T15:15:33.627Z,15.92
2019-02-24T15:18:01.348Z,15.27
2019-02-24T15:20:28.415Z,15.33
2019-02-24T15:22:55.745Z,14.78
2019-02-24T15:25:23.545Z,14.50
2019-02-24T15:27:51.110Z,15.19
2019-02-24T15:30:24.357Z,15.13
2019-02-24T15:32:52.127Z,15.32
2019-02-24T15:35:20.099Z,15.33
2019-02-24T15:37:47.450Z,15.00
2019-02-24T15:40:14.822Z,15.13
2019-02-24T15:42:42.158Z,15.06
2019-02-24T15:45:09.495Z,13.96
2019-02-24T15:47:36.868Z,13.86
2019-02-24T15:50:04.154Z,14.07
2019-02-24T15:52:31.243Z,13.88
2019-02-24T15:54:58.313Z,14.13
2019-02-24T15:57:25.699Z,13.78
2019-02-24T15:59:52.838Z,13.50
2019-02-24T16:02:20.213Z,12.94
2019-02-24T16:04:47.266Z,13.33
2019-02-24T16:07:14.721Z,13.40
2019-02-24T16:09:41.786Z,13.24
2019-02-24T16:12:08.866Z,13.00
2019-02-24T16:14:35.983Z,12.68
2019-02-24T16:17:03.446Z,13.08
2019-02-24T16:19:30.527Z,12.93
2019-02-24T16:21:57.728Z,12.58
2019-02-24T16:24:24.798Z,12.44
2019-02-24T16:26:52.241Z,12.19
2019-02-24T16:29:19.482Z,12.25
2019-02-24T16:31:46.563Z,12.15
2019-02-24T16:34:13.643Z,11.89
2019-02-24T16:36:40.741Z,12.01
2019-02-24T16:39:08.975Z,11.73
2019-02-24T16:41:36.862Z,11.52
2019-02-24T16:44:05.710Z,11.49
2019-02-24T16:46:33.167Z,11.38
2019-02-24T16:49:00.253Z,11.38
2019-02-24T16:51:31.700Z,11.32
2019-02-24T16:54:01.002Z,11.26
2019-02-24T16:56:28.062Z,10.95
2019-02-24T16:58:55.725Z,11.11
2019-02-24T17:01:22.778Z,11.02
2019-02-24T17:03:50.176Z,10.89
2019-02-24T17:06:18.046Z,11.02
2019-02-24T17:08:52.178Z,10.86
2019-02-24T17:11:15.951Z,10.92
2019-02-24T17:13:44.779Z,10.84
2019-02-24T17:16:13.911Z,10.75
2019-02-24T17:18:41.000Z,10.75
2019-02-24T17:21:08.414Z,10.79
2019-02-24T17:23:36.191Z,10.62
2019-02-24T17:26:05.281Z,10.49
2019-02-24T17:28:32.631Z,10.37
2019-02-24T17:30:59.731Z,10.32
2019-02-24T17:33:30.003Z,10.32
2019-02-24T17:35:56.859Z,10.15
2019-02-24T17:38:23.957Z,10.30
2019-02-24T17:40:51.387Z,10.19
2019-02-24T17:43:18.831Z,10.10
2019-02-24T17:45:45.930Z,10.00
2019-02-24T17:48:13.007Z,10.00
2019-02-24T17:50:41.512Z,9.71
2019-02-24T17:53:08.581Z,9.71
2019-02-24T17:55:35.668Z,9.66
2019-02-24T17:58:02.737Z,9.83
2019-02-24T18:00:31.604Z,9.67
2019-02-24T18:02:58.757Z,9.62
2019-02-24T18:05:26.328Z,9.61
2019-02-24T18:07:53.393Z,9.61
2019-02-24T18:10:20.846Z,9.38
2019-02-24T18:12:47.940Z,9.38
2019-02-24T18:15:15.119Z,9.38
2019-02-24T18:17:42.925Z,9.32
2019-02-24T18:20:10.684Z,9.32
2019-02-24T18:22:38.319Z,9.15
2019-02-24T18:25:08.048Z,9.15
2019-02-24T18:27:35.647Z,9.14
2019-02-24T18:30:03.664Z,9.26
2019-02-24T18:32:32.307Z,9.26
2019-02-24T18:34:59.447Z,9.27
2019-02-24T18:37:26.554Z,8.99
2019-02-24T18:39:53.625Z,8.99
2019-02-24T18:42:20.887Z,9.18
2019-02-24T18:44:47.983Z,9.18
2019-02-24T18:47:15.055Z,9.21
2019-02-24T18:49:42.334Z,9.11
2019-02-24T18:52:09.415Z,9.22
2019-02-24T18:54:37.311Z,8.86
2019-02-24T18:57:04.863Z,8.85
2019-02-24T18:59:31.926Z,8.85
2019-02-24T19:01:58.999Z,8.81
2019-02-24T19:04:26.099Z,8.67
2019-02-24T19:06:53.197Z,8.73
2019-02-24T19:09:20.371Z,8.73
2019-02-24T19:11:48.571Z,8.75
2019-02-24T19:14:15.640Z,8.75
2019-02-24T19:16:42.746Z,8.66
2019-02-24T19:19:09.870Z,8.43
2019-02-24T19:21:36.998Z,8.58
2019-02-24T19:24:04.074Z,8.58
2019-02-24T19:26:31.390Z,8.39
2019-02-24T19:28:58.487Z,8.40
2019-02-24T19:31:27.381Z,8.40
2019-02-24T19:33:54.481Z,8.22
2019-02-24T19:36:21.938Z,8.23
2019-02-24T19:38:49.021Z,8.05
2019-02-24T19:41:16.120Z,8.11
2019-02-24T19:43:43.727Z,7.97
2019-02-24T19:46:10.879Z,7.87
2019-02-24T19:48:42.020Z,7.92
2019-02-24T19:51:08.042Z,7.91
2019-02-24T19:53:35.117Z,7.81
2019-02-24T19:56:02.227Z,7.80
2019-02-24T19:58:29.315Z,7.68
2019-02-24T20:00:56.537Z,7.72
2019-02-24T20:03:23.648Z,7.59
2019-02-24T20:05:50.950Z,7.43
2019-02-24T20:08:18.308Z,7.53
2019-02-24T20:10:45.749Z,7.23
2019-02-24T20:13:13.274Z,7.12
2019-02-24T20:15:41.870Z,7.40
2019-02-24T20:18:09.098Z,7.35
2019-02-24T20:20:36.189Z,7.38
2019-02-24T20:23:03.418Z,7.25
2019-02-24T20:25:30.953Z,7.40
2019-02-24T20:27:58.137Z,7.28
2019-02-24T20:30:25.903Z,7.09
2019-02-24T20:32:55.042Z,7.18
2019-02-24T20:35:22.137Z,7.14
2019-02-24T20:37:50.171Z,7.04
2019-02-24T20:40:17.617Z,7.00
2019-02-24T20:42:44.891Z,7.02
2019-02-24T20:45:13.763Z,7.09
2019-02-24T20:47:40.846Z,6.98
2019-02-24T20:50:09.401Z,6.97
2019-02-24T20:52:36.560Z,7.07
2019-02-24T20:55:05.226Z,6.94
2019-02-24T20:57:32.300Z,6.96
2019-02-24T20:59:59.345Z,6.89
2019-02-24T21:02:26.797Z,6.81
2019-02-24T21:04:53.962Z,6.83
2019-02-24T21:07:22.502Z,6.92
2019-02-24T21:09:49.569Z,6.95
2019-02-24T21:12:16.645Z,6.96
2019-02-24T21:14:44.113Z,6.86
2019-02-24T21:17:11.189Z,6.60
2019-02-24T21:19:39.111Z,6.66
2019-02-24T21:22:06.553Z,6.79
2019-02-24T21:24:33.645Z,6.72
2019-02-24T21:27:00.831Z,6.43
2019-02-24T21:29:29.380Z,6.49
2019-02-24T21:31:56.487Z,6.36
2019-02-24T21:34:23.563Z,6.51
2019-02-24T21:36:51.743Z,6.47
2019-02-24T21:39:18.835Z,6.41
2019-02-24T21:41:46.370Z,6.56
2019-02-24T21:44:13.467Z,6.54
2019-02-24T21:46:40.549Z,6.34
2019-02-24T21:49:07.747Z,6.41
2019-02-24T21:51:35.224Z,6.47
2019-02-24T21:54:02.312Z,6.36
2019-02-24T21:56:29.396Z,6.29
2019-02-24T21:58:56.539Z,6.34
2019-02-24T22:01:23.611Z,6.42
2019-02-24T22:03:50.715Z,6.35
2019-02-24T22:06:18.828Z,6.10
2019-02-24T22:08:45.919Z,5.99
2019-02-24T22:11:14.002Z,6.20
2019-02-24T22:13:41.091Z,6.00
2019-02-24T22:16:10.191Z,6.05
2019-02-24T22:18:37.391Z,5.99
2019-02-24T22:21:09.034Z,6.02
2019-02-24T22:23:36.118Z,5.96
2019-02-24T22:26:03.571Z,5.97
2019-02-24T22:28:30.688Z,5.96
2019-02-24T22:30:57.922Z,6.10
2019-02-24T22:33:25.431Z,6.09
2019-02-24T22:35:52.510Z,6.02
2019-02-24T22:38:19.614Z,5.94
2019-02-24T22:40:54.217Z,5.91
2019-02-24T22:43:15.670Z,6.11
2019-02-24T22:45:42.783Z,6.05
2019-02-24T22:48:09.958Z,6.07
2019-02-24T22:50:37.459Z,5.89
2019-02-24T22:53:04.590Z,5.80
2019-02-24T22:55:32.986Z,5.72
2019-02-24T22:58:00.752Z,5.74
2019-02-24T23:00:58.125Z,5.79
2019-02-24T23:03:29.751Z,5.75
2019-02-24T23:05:56.822Z,5.54
2019-02-24T23:08:24.009Z,5.59
2019-02-24T23:10:51.751Z,5.53
2019-02-24T23:13:19.290Z,5.50
2019-02-24T23:15:47.298Z,5.59
2019-02-24T23:18:15.222Z,5.64
2019-02-24T23:20:42.699Z,5.74
2019-02-24T23:23:10.190Z,5.61
2019-02-24T23:25:37.243Z,5.60
2019-02-24T23:28:04.882Z,5.62
2019-02-24T23:30:33.426Z,5.51
2019-02-24T23:33:00.985Z,5.51
2019-02-24T23:35:28.474Z,5.56
2019-02-24T23:37:55.950Z,5.53
2019-02-24T23:40:23.589Z,5.47
2019-02-24T23:42:52.452Z,5.36
2019-02-24T23:45:19.906Z,5.44
2019-02-24T23:47:47.465Z,5.31
2019-02-24T23:50:14.869Z,5.31
2019-02-24T23:52:42.278Z,5.36
2019-02-24T23:55:10.458Z,5.22
2019-02-24T23:57:37.524Z,5.22
